Time;durP1;ratioP1;P1;durP2;ratioP2;P2;SDS_P1;SDS_P2;PMS_P1;PMS_P2;Temp;Humidity;BMP_temperature;BMP_pressure;BME280_temperature;BME280_humidity;BME280_pressure;Samples;Min_cycle;Max_cycle;Signal;HPM_P1;HPM_P2
2022/04/07 00:01:43;;;;;;;2.53;1.00;;;7.20;99.90;;;;;;4163640;28;20629;-72
2022/04/07 00:03:44;;;;;;;1.40;1.10;;;7.10;99.90;;;;;;4164312;28;20187;-72
2022/04/07 00:05:45;;;;;;;1.27;1.13;;;7.10;99.90;;;;;;4164378;28;20591;-72
2022/04/07 00:07:45;;;;;;;0.60;0.60;;;7.10;99.90;;;;;;4163085;28;20239;-72
2022/04/07 00:09:46;;;;;;;1.53;0.70;;;7.10;99.90;;;;;;4164540;28;21192;-72
2022/04/07 00:11:47;;;;;;;0.70;0.70;;;7.00;99.90;;;;;;4162386;28;20177;-71
2022/04/07 00:13:47;;;;;;;0.77;0.77;;;7.10;99.90;;;;;;4164040;28;20185;-72
2022/04/07 00:15:48;;;;;;;1.77;1.07;;;7.10;99.90;;;;;;4162381;28;20223;-71
2022/04/07 00:17:49;;;;;;;1.27;1.13;;;7.00;99.90;;;;;;4163791;28;20204;-71
2022/04/07 00:19:50;;;;;;;1.00;0.90;;;7.00;99.90;;;;;;4146460;28;20579;-72
2022/04/07 00:21:51;;;;;;;0.70;0.67;;;6.90;99.90;;;;;;4163394;28;20432;-72
2022/04/07 00:23:53;;;;;;;1.10;0.90;;;6.90;99.90;;;;;;4164012;28;20493;-71
2022/04/07 00:25:53;;;;;;;4.10;1.53;;;6.90;99.90;;;;;;4162963;28;20201;-71
2022/04/07 00:27:54;;;;;;;0.80;0.80;;;6.90;99.90;;;;;;4162979;28;20486;-72
2022/04/07 00:29:55;;;;;;;0.77;0.77;;;6.80;99.90;;;;;;4164312;28;20177;-71
2022/04/07 00:31:57;;;;;;;0.80;0.80;;;6.80;99.90;;;;;;4163362;28;20181;-72
2022/04/07 00:33:57;;;;;;;0.70;0.70;;;6.70;99.90;;;;;;4163727;28;20203;-72
2022/04/07 00:35:58;;;;;;;0.50;0.50;;;6.70;99.90;;;;;;4163419;28;20431;-74
2022/04/07 00:38:00;;;;;;;2.37;0.80;;;6.60;99.90;;;;;;4164222;28;20631;-71
2022/04/07 00:40:01;;;;;;;0.50;0.50;;;6.60;99.90;;;;;;4164089;28;20188;-71
2022/04/07 00:42:01;;;;;;;0.70;0.60;;;6.40;99.90;;;;;;4163211;28;20463;-71
2022/04/07 00:44:02;;;;;;;0.60;0.60;;;6.40;99.90;;;;;;4162385;28;20427;-71
2022/04/07 00:46:04;;;;;;;0.50;0.50;;;6.40;99.90;;;;;;4163815;28;20203;-72
2022/04/07 00:48:05;;;;;;;0.47;0.47;;;6.40;99.90;;;;;;4162435;28;20264;-71
2022/04/07 00:50:06;;;;;;;0.83;0.83;;;6.40;99.90;;;;;;4145797;28;20471;-71
2022/04/07 00:52:08;;;;;;;0.60;0.60;;;6.40;99.90;;;;;;4161977;28;20200;-71
2022/04/07 00:54:11;;;;;;;0.60;0.57;;;6.40;99.90;;;;;;4162416;28;20455;-71
2022/04/07 00:56:14;;;;;;;0.70;0.60;;;6.40;99.90;;;;;;4163355;28;20428;-71
2022/04/07 00:58:16;;;;;;;0.60;0.60;;;6.50;99.90;;;;;;4162203;28;20471;-71
2022/04/07 01:00:17;;;;;;;1.13;0.70;;;6.50;99.90;;;;;;4162315;28;20428;-71
2022/04/07 01:02:17;;;;;;;0.80;0.80;;;6.50;99.90;;;;;;4161797;28;20426;-71
2022/04/07 01:04:18;;;;;;;1.03;0.90;;;6.50;99.90;;;;;;4163889;28;20185;-71
2022/04/07 01:06:19;;;;;;;1.13;0.70;;;6.40;99.90;;;;;;4163662;28;20239;-71
2022/04/07 01:08:20;;;;;;;0.70;0.70;;;6.30;99.90;;;;;;4162388;28;20205;-71
2022/04/07 01:10:21;;;;;;;1.37;0.83;;;6.20;99.90;;;;;;4162031;28;20510;-71
2022/04/07 01:12:22;;;;;;;1.37;0.90;;;6.10;99.90;;;;;;4162882;28;20442;-72
2022/04/07 01:14:23;;;;;;;1.10;0.90;;;6.10;99.90;;;;;;4163261;28;20842;-71
2022/04/07 01:16:29;;;;;;;0.83;0.77;;;6.10;99.90;;;;;;4163427;28;20795;-71
2022/04/07 01:18:30;;;;;;;1.07;0.90;;;6.10;99.90;;;;;;4145488;28;20256;-71
2022/04/07 01:20:31;;;;;;;1.13;0.93;;;6.10;99.90;;;;;;4163162;28;20431;-71
2022/04/07 01:22:39;;;;;;;2.00;0.83;;;6.10;99.90;;;;;;4161349;28;20196;-71
2022/04/07 01:24:40;;;;;;;1.17;0.80;;;6.10;99.90;;;;;;4161812;28;20787;-72
2022/04/07 01:26:43;;;;;;;1.00;0.90;;;6.10;99.90;;;;;;4163285;28;20486;-72
2022/04/07 01:28:48;;;;;;;2.40;0.90;;;6.10;99.90;;;;;;4161991;28;20270;-71
2022/04/07 01:30:49;;;;;;;1.60;0.80;;;6.10;99.90;;;;;;4161759;28;21004;-72
2022/04/07 01:32:52;;;;;;;1.30;1.00;;;6.10;99.90;;;;;;4162066;28;20482;-71
2022/04/07 01:34:53;;;;;;;0.70;0.70;;;6.10;99.90;;;;;;4161919;28;20218;-71
2022/04/07 01:36:54;;;;;;;1.23;0.90;;;6.10;99.90;;;;;;4161715;28;20471;-72
2022/04/07 01:38:57;;;;;;;0.80;0.73;;;6.10;99.90;;;;;;4163295;28;20687;-71
2022/04/07 01:40:57;;;;;;;1.23;1.13;;;6.10;99.90;;;;;;4161896;28;20183;-72
2022/04/07 01:43:00;;;;;;;0.80;0.70;;;6.10;99.90;;;;;;4144719;28;20424;-71
2022/04/07 01:45:04;;;;;;;2.37;1.07;;;6.20;99.90;;;;;;4161634;28;20667;-71
2022/04/07 01:47:08;;;;;;;1.17;0.97;;;6.20;99.90;;;;;;4161807;28;20927;-72
2022/04/07 01:49:09;;;;;;;0.70;0.70;;;6.20;99.90;;;;;;4145306;28;20527;-71
2022/04/07 01:51:12;;;;;;;1.20;0.80;;;6.30;99.90;;;;;;4162140;28;20795;-71
2022/04/07 01:53:13;;;;;;;1.57;1.10;;;6.20;99.90;;;;;;4162900;28;20272;-71
2022/04/07 01:55:15;;;;;;;1.30;1.10;;;6.20;99.90;;;;;;4161853;28;20428;-71
2022/04/07 01:57:20;;;;;;;0.80;0.80;;;6.30;99.90;;;;;;4162675;28;20208;-71
2022/04/07 01:59:21;;;;;;;1.60;1.30;;;6.20;99.90;;;;;;4162567;28;20467;-71
2022/04/07 02:01:22;;;;;;;1.23;1.10;;;6.20;99.90;;;;;;4162002;28;20937;-71
2022/04/07 02:03:23;;;;;;;1.10;1.00;;;6.20;99.90;;;;;;4162714;28;20435;-71
2022/04/07 02:05:23;;;;;;;1.20;1.00;;;6.20;99.90;;;;;;4162695;28;20196;-72
2022/04/07 02:07:29;;;;;;;1.33;1.00;;;6.20;99.90;;;;;;4162945;28;20276;-71
2022/04/07 02:09:33;;;;;;;1.17;1.07;;;6.30;99.90;;;;;;4161325;28;20200;-72
2022/04/07 02:11:35;;;;;;;2.23;1.20;;;6.30;99.90;;;;;;4162221;28;20438;-71
2022/04/07 02:13:37;;;;;;;1.10;1.00;;;6.30;99.90;;;;;;4161254;28;20427;-72
2022/04/07 02:15:38;;;;;;;1.60;1.27;;;6.30;99.90;;;;;;4159941;28;20466;-71
2022/04/07 02:17:39;;;;;;;1.00;0.90;;;6.30;99.90;;;;;;4160908;28;20451;-72
2022/04/07 02:19:40;;;;;;;2.07;0.93;;;6.30;99.90;;;;;;4146130;28;20274;-71
2022/04/07 02:21:41;;;;;;;0.80;0.80;;;6.40;99.90;;;;;;4145446;28;20441;-72
2022/04/07 02:23:44;;;;;;;2.13;0.97;;;6.50;99.90;;;;;;4146203;28;20186;-72
2022/04/07 02:25:45;;;;;;;1.43;0.93;;;6.50;99.90;;;;;;4145908;28;20188;-71
2022/04/07 02:27:45;;;;;;;0.90;0.80;;;6.50;99.90;;;;;;4146349;28;20448;-71
2022/04/07 02:29:46;;;;;;;1.63;1.10;;;6.50;99.90;;;;;;4146178;28;20204;-71
2022/04/07 02:31:47;;;;;;;1.37;1.07;;;6.50;99.90;;;;;;4144090;28;20212;-71
2022/04/07 02:33:47;;;;;;;1.13;1.00;;;6.50;99.90;;;;;;4145905;28;20201;-71
2022/04/07 02:35:50;;;;;;;1.50;0.90;;;6.50;99.90;;;;;;4146086;28;20236;-72
2022/04/07 02:37:51;;;;;;;1.30;1.13;;;6.50;99.90;;;;;;4146117;28;20319;-71
2022/04/07 02:39:53;;;;;;;1.03;0.83;;;6.40;99.90;;;;;;4146081;28;20471;-72
2022/04/07 02:41:53;;;;;;;3.13;1.17;;;6.50;99.90;;;;;;4145754;28;20197;-71
2022/04/07 02:43:55;;;;;;;1.10;1.00;;;6.40;99.90;;;;;;4155249;28;20428;-74
2022/04/07 02:45:56;;;;;;;1.10;1.00;;;6.40;99.90;;;;;;4164369;28;20185;-71
2022/04/07 02:47:56;;;;;;;2.83;1.10;;;6.40;99.90;;;;;;4165495;28;20457;-72
2022/04/07 02:49:57;;;;;;;2.30;0.83;;;6.40;99.90;;;;;;4165721;28;20192;-71
2022/04/07 02:51:58;;;;;;;1.17;1.00;;;6.50;99.90;;;;;;4163881;28;20235;-71
2022/04/07 02:53:58;;;;;;;1.20;0.90;;;6.60;99.90;;;;;;4165534;28;20668;-72
2022/04/07 02:55:59;;;;;;;0.80;0.70;;;6.50;99.90;;;;;;4164427;28;20207;-71
2022/04/07 02:58:00;;;;;;;1.40;0.93;;;6.40;99.90;;;;;;4165598;28;20652;-72
2022/04/07 03:00:03;;;;;;;1.30;1.00;;;6.40;99.90;;;;;;4165527;28;20652;-72
2022/04/07 03:02:04;;;;;;;1.23;0.80;;;6.50;99.90;;;;;;4163424;28;20985;-71
2022/04/07 03:04:05;;;;;;;1.03;0.73;;;6.50;99.90;;;;;;4180470;28;20430;-71
2022/04/07 03:06:06;;;;;;;1.57;1.07;;;6.50;99.90;;;;;;4165435;28;20598;-71
2022/04/07 03:08:06;;;;;;;2.20;0.70;;;6.50;99.90;;;;;;4165401;28;20605;-71
2022/04/07 03:10:08;;;;;;;1.00;0.90;;;6.50;99.90;;;;;;4165981;28;20221;-71
2022/04/07 03:12:09;;;;;;;0.90;0.70;;;6.40;99.90;;;;;;4163606;28;20760;-71
2022/04/07 03:14:10;;;;;;;0.80;0.80;;;6.40;99.90;;;;;;4165217;28;20431;-71
2022/04/07 03:16:11;;;;;;;0.90;0.50;;;6.40;99.90;;;;;;4165360;28;20776;-71
2022/04/07 03:18:12;;;;;;;1.20;1.10;;;6.50;99.90;;;;;;4163966;28;20209;-71
2022/04/07 03:20:13;;;;;;;0.70;0.70;;;6.40;99.90;;;;;;4165194;28;20266;-71
2022/04/07 03:22:15;;;;;;;2.03;0.80;;;6.50;99.90;;;;;;4164412;28;20934;-71
2022/04/07 03:24:16;;;;;;;0.70;0.70;;;6.50;99.90;;;;;;4164673;28;20565;-71
2022/04/07 03:26:16;;;;;;;1.47;1.10;;;6.60;99.90;;;;;;4164999;28;20451;-71
2022/04/07 03:28:18;;;;;;;1.07;0.60;;;6.50;99.90;;;;;;4165081;28;20209;-72
2022/04/07 03:30:19;;;;;;;0.80;0.73;;;6.50;99.90;;;;;;4164673;28;20212;-72
2022/04/07 03:32:19;;;;;;;1.20;0.80;;;6.50;99.90;;;;;;4164158;28;20906;-72
2022/04/07 03:34:20;;;;;;;1.23;0.57;;;6.50;99.90;;;;;;4164722;28;20204;-71
2022/04/07 03:36:20;;;;;;;1.20;0.60;;;6.50;99.90;;;;;;4164463;28;20208;-71
2022/04/07 03:38:21;;;;;;;0.57;0.53;;;6.50;99.90;;;;;;4164551;28;20208;-71
2022/04/07 03:40:22;;;;;;;0.90;0.90;;;6.50;99.90;;;;;;4164692;28;20185;-71
2022/04/07 03:42:23;;;;;;;0.50;0.50;;;6.60;99.90;;;;;;4163907;28;20208;-71
2022/04/07 03:44:23;;;;;;;0.70;0.70;;;6.50;99.90;;;;;;4164451;28;20847;-71
2022/04/07 03:46:24;;;;;;;0.50;0.50;;;6.60;99.90;;;;;;4163086;28;20280;-71
2022/04/07 03:48:25;;;;;;;1.57;1.13;;;6.60;99.90;;;;;;4164305;28;20181;-71
2022/04/07 03:50:26;;;;;;;1.53;0.77;;;6.70;99.90;;;;;;4164283;28;20563;-71
2022/04/07 03:52:27;;;;;;;0.77;0.63;;;6.70;99.90;;;;;;4163656;28;20216;-71
2022/04/07 03:54:28;;;;;;;0.40;0.40;;;6.70;99.90;;;;;;4164357;28;20450;-72
2022/04/07 03:56:28;;;;;;;0.30;0.30;;;6.70;99.90;;;;;;4163917;28;20683;-71
2022/04/07 03:58:30;;;;;;;0.40;0.40;;;6.70;99.90;;;;;;4162990;28;20217;-71
2022/04/07 04:00:32;;;;;;;0.47;0.47;;;6.70;99.90;;;;;;4163169;28;20223;-71
2022/04/07 04:02:33;;;;;;;1.20;0.40;;;6.70;99.90;;;;;;4163529;28;20504;-71
2022/04/07 04:04:34;;;;;;;0.50;0.40;;;6.70;99.90;;;;;;4164195;28;20973;-71
2022/04/07 04:06:35;;;;;;;0.80;0.47;;;6.70;99.90;;;;;;4164216;28;20237;-71
2022/04/07 04:08:35;;;;;;;0.80;0.80;;;6.60;99.90;;;;;;4164097;28;20216;-71
2022/04/07 04:10:36;;;;;;;0.50;0.50;;;6.60;99.90;;;;;;4164130;28;20189;-71
2022/04/07 04:12:37;;;;;;;0.53;0.53;;;6.70;99.90;;;;;;4162478;28;20260;-72
2022/04/07 04:14:38;;;;;;;0.40;0.40;;;6.80;99.90;;;;;;4163375;28;20192;-72
2022/04/07 04:16:38;;;;;;;0.50;0.50;;;6.80;99.90;;;;;;4162849;28;20449;-70
2022/04/07 04:18:39;;;;;;;0.40;0.40;;;6.80;99.90;;;;;;4163817;28;20295;-71
2022/04/07 04:20:40;;;;;;;0.40;0.40;;;6.80;99.90;;;;;;4163890;28;20181;-70
2022/04/07 04:22:41;;;;;;;0.53;0.47;;;6.70;99.90;;;;;;4162817;28;20277;-70
2022/04/07 04:24:41;;;;;;;0.40;0.40;;;6.80;99.90;;;;;;4163790;28;20193;-70
2022/04/07 04:26:43;;;;;;;1.20;0.40;;;6.80;99.90;;;;;;4163654;28;20205;-70
2022/04/07 04:28:43;;;;;;;0.30;0.30;;;6.80;99.90;;;;;;4163613;28;20189;-70
2022/04/07 04:30:44;;;;;;;0.63;0.30;;;6.80;99.90;;;;;;4163622;28;20858;-72
2022/04/07 04:32:45;;;;;;;0.30;0.30;;;6.90;99.90;;;;;;4161723;28;20705;-72
2022/04/07 04:34:45;;;;;;;0.50;0.50;;;6.90;99.90;;;;;;4163395;28;20562;-72
2022/04/07 04:36:46;;;;;;;0.40;0.40;;;6.90;99.90;;;;;;4161980;28;20208;-72
2022/04/07 04:38:48;;;;;;;0.30;0.30;;;6.90;99.90;;;;;;4163553;28;20211;-72
2022/04/07 04:40:48;;;;;;;0.30;0.30;;;6.90;99.90;;;;;;4162190;28;20208;-72
2022/04/07 04:42:49;;;;;;;0.30;0.30;;;6.90;99.90;;;;;;4163050;28;20427;-72
2022/04/07 04:44:50;;;;;;;0.40;0.40;;;6.90;99.90;;;;;;4162009;28;20272;-71
2022/04/07 04:46:50;;;;;;;0.30;0.30;;;6.90;99.90;;;;;;4163550;28;20201;-71
2022/04/07 04:48:51;;;;;;;0.33;0.30;;;6.90;99.90;;;;;;4163468;28;20201;-71
2022/04/07 04:50:51;;;;;;;0.60;0.40;;;7.00;99.90;;;;;;4163542;28;20192;-71
2022/04/07 04:52:52;;;;;;;0.47;0.40;;;7.00;99.90;;;;;;4162786;28;20350;-71
2022/04/07 04:54:53;;;;;;;0.30;0.30;;;6.90;99.90;;;;;;4163093;28;20195;-72
2022/04/07 04:56:53;;;;;;;0.30;0.30;;;7.00;99.90;;;;;;4163204;28;20209;-71
2022/04/07 04:58:57;;;;;;;0.50;0.37;;;7.00;99.90;;;;;;4163236;28;20205;-72
2022/04/07 05:00:57;;;;;;;0.20;0.20;;;7.00;99.90;;;;;;4161786;28;20227;-71
2022/04/07 05:02:58;;;;;;;0.30;0.30;;;7.00;99.90;;;;;;4163159;28;20431;-72
2022/04/07 05:04:59;;;;;;;0.20;0.20;;;7.00;99.90;;;;;;4163200;28;20212;-71
2022/04/07 05:06:59;;;;;;;0.30;0.30;;;7.00;99.80;;;;;;4162023;28;20575;-71
2022/04/07 05:09:00;;;;;;;0.40;0.30;;;6.90;99.90;;;;;;4162410;28;20189;-71
2022/04/07 05:11:01;;;;;;;0.30;0.30;;;6.90;99.90;;;;;;4161906;28;20181;-72
2022/04/07 05:13:01;;;;;;;2.00;0.50;;;7.00;99.00;;;;;;4162983;28;20647;-71
2022/04/07 05:15:02;;;;;;;0.50;0.40;;;7.00;99.90;;;;;;4163239;28;20189;-72
2022/04/07 05:17:04;;;;;;;0.70;0.40;;;6.90;99.50;;;;;;4163052;28;20213;-71
2022/04/07 05:19:05;;;;;;;1.43;1.03;;;6.90;98.80;;;;;;4163002;28;21253;-71
2022/04/07 05:21:05;;;;;;;0.43;0.43;;;6.90;99.00;;;;;;4161445;28;20416;-72
2022/04/07 05:23:06;;;;;;;0.40;0.40;;;7.00;98.20;;;;;;4163478;28;20188;-72
2022/04/07 05:25:08;;;;;;;0.93;0.60;;;7.00;98.60;;;;;;4163494;28;20176;-72
2022/04/07 05:27:09;;;;;;;1.13;0.63;;;7.00;98.60;;;;;;4165727;28;20197;-72
2022/04/07 05:29:10;;;;;;;0.60;0.60;;;7.00;99.70;;;;;;4161986;28;20443;-72
2022/04/07 05:31:11;;;;;;;1.77;0.40;;;6.90;99.90;;;;;;4161257;28;20181;-72
2022/04/07 05:33:13;;;;;;;1.60;1.13;;;6.90;99.90;;;;;;4161264;28;20193;-72
2022/04/07 05:35:15;;;;;;;0.50;0.50;;;7.00;99.90;;;;;;4162819;28;20432;-72
2022/04/07 05:37:16;;;;;;;2.10;0.50;;;7.00;99.40;;;;;;4161556;28;20436;-72
2022/04/07 05:39:16;;;;;;;0.70;0.60;;;7.10;98.90;;;;;;4162618;28;20462;-72
2022/04/07 05:41:17;;;;;;;5.23;0.50;;;7.20;98.80;;;;;;4160831;28;20185;-72
2022/04/07 05:43:18;;;;;;;1.13;0.50;;;7.10;99.10;;;;;;4162540;28;20180;-72
2022/04/07 05:45:19;;;;;;;0.43;0.40;;;7.20;98.60;;;;;;4161135;28;20185;-72
2022/04/07 05:47:19;;;;;;;1.07;0.50;;;7.30;98.30;;;;;;4162529;28;20224;-72
2022/04/07 05:49:20;;;;;;;0.53;0.43;;;7.40;97.90;;;;;;4162641;28;20181;-72
2022/04/07 05:51:21;;;;;;;0.97;0.53;;;7.40;98.00;;;;;;4161888;28;20210;-72
2022/04/07 05:53:23;;;;;;;0.30;0.30;;;7.40;97.60;;;;;;4161262;28;20188;-72
2022/04/07 05:55:24;;;;;;;0.50;0.40;;;7.40;97.90;;;;;;4162399;28;20192;-72
2022/04/07 05:57:30;;;;;;;0.60;0.50;;;7.40;97.60;;;;;;4162549;28;21003;-72
2022/04/07 05:59:30;;;;;;;0.57;0.40;;;7.50;97.60;;;;;;4160881;28;20202;-72
2022/04/07 06:01:31;;;;;;;0.40;0.40;;;7.60;96.90;;;;;;4160462;28;20477;-72
2022/04/07 06:03:32;;;;;;;0.73;0.53;;;7.50;96.30;;;;;;4162323;28;20185;-72
2022/04/07 06:05:32;;;;;;;0.40;0.40;;;7.50;96.40;;;;;;4162246;28;20181;-72
2022/04/07 06:07:34;;;;;;;0.60;0.53;;;7.60;95.90;;;;;;4162323;28;20684;-72
2022/04/07 06:09:35;;;;;;;0.30;0.30;;;7.60;96.00;;;;;;4160886;28;20204;-72
2022/04/07 06:11:36;;;;;;;0.70;0.50;;;7.50;96.00;;;;;;4161676;28;20453;-72
2022/04/07 06:13:38;;;;;;;2.00;0.80;;;7.50;96.10;;;;;;4162215;28;20427;-72
2022/04/07 06:15:39;;;;;;;0.60;0.60;;;7.50;96.40;;;;;;4162315;28;20187;-72
2022/04/07 06:17:44;;;;;;;1.50;0.70;;;7.50;96.00;;;;;;4162261;28;20448;-72
2022/04/07 06:19:45;;;;;;;1.90;0.80;;;7.50;95.80;;;;;;4160651;28;20569;-72
2022/04/07 06:21:45;;;;;;;0.40;0.40;;;7.50;96.30;;;;;;4160172;28;20456;-72
2022/04/07 06:23:46;;;;;;;0.40;0.40;;;7.50;96.60;;;;;;4160772;28;20169;-71
2022/04/07 06:25:47;;;;;;;0.53;0.47;;;7.50;96.60;;;;;;4161626;28;20207;-72
2022/04/07 06:27:47;;;;;;;0.60;0.50;;;7.50;96.60;;;;;;4160601;28;20201;-71
2022/04/07 06:29:48;;;;;;;0.50;0.43;;;7.50;96.60;;;;;;4161910;28;20592;-72
2022/04/07 06:31:48;;;;;;;0.33;0.33;;;7.60;96.30;;;;;;4161400;28;20709;-72
2022/04/07 06:33:49;;;;;;;0.90;0.40;;;7.60;96.20;;;;;;4160657;28;20660;-71
2022/04/07 06:35:51;;;;;;;1.00;0.50;;;7.80;95.60;;;;;;4160722;28;20190;-72
2022/04/07 06:37:58;;;;;;;0.65;0.45;;;7.80;95.70;;;;;;4161158;28;20204;-72
2022/04/07 06:40:03;;;;;;;1.80;0.80;;;7.90;95.70;;;;;;4161979;28;20947;-72
2022/04/07 06:42:04;;;;;;;0.97;0.43;;;8.10;95.00;;;;;;4159939;28;20947;-72
2022/04/07 06:44:05;;;;;;;1.80;0.43;;;8.00;95.60;;;;;;4160472;28;20424;-72
2022/04/07 06:46:06;;;;;;;0.70;0.60;;;8.10;95.60;;;;;;4161760;28;20210;-72
2022/04/07 06:48:08;;;;;;;1.30;0.50;;;8.50;94.10;;;;;;4161704;28;20449;-72
2022/04/07 06:50:17;;;;;;;0.83;0.60;;;8.70;93.60;;;;;;4160609;28;20185;-72
2022/04/07 06:52:18;;;;;;;0.77;0.40;;;8.70;92.60;;;;;;4161266;28;20179;-72
2022/04/07 06:54:19;;;;;;;0.93;0.57;;;8.80;92.50;;;;;;4160376;28;20182;-72
2022/04/07 06:56:19;;;;;;;2.07;0.93;;;8.60;93.40;;;;;;4160294;28;20340;-71
2022/04/07 06:58:20;;;;;;;0.43;0.40;;;8.60;93.90;;;;;;4161569;28;20207;-72
2022/04/07 07:00:24;;;;;;;1.03;0.70;;;8.20;94.80;;;;;;4161736;28;20721;-71
2022/04/07 07:02:24;;;;;;;1.17;0.90;;;8.00;96.80;;;;;;4161237;28;20181;-72
2022/04/07 07:04:25;;;;;;;0.90;0.60;;;8.00;96.70;;;;;;4161766;28;20180;-72
2022/04/07 07:06:26;;;;;;;1.37;0.60;;;7.90;97.50;;;;;;4161708;28;20233;-72
2022/04/07 07:08:27;;;;;;;2.03;1.40;;;8.00;97.20;;;;;;4160540;28;20186;-72
2022/04/07 07:10:28;;;;;;;1.90;0.87;;;8.30;96.20;;;;;;4160409;28;20190;-72
2022/04/07 07:12:29;;;;;;;1.93;1.00;;;8.50;94.80;;;;;;4161171;28;20187;-72
2022/04/07 07:14:29;;;;;;;1.87;0.80;;;8.50;94.20;;;;;;4160426;28;20433;-72
2022/04/07 07:16:30;;;;;;;3.27;1.00;;;8.60;94.40;;;;;;4160475;28;20236;-72
2022/04/07 07:18:31;;;;;;;1.53;0.83;;;8.70;94.70;;;;;;4161655;28;20201;-72
2022/04/07 07:20:31;;;;;;;1.43;0.40;;;8.80;93.20;;;;;;4160424;28;20238;-72
2022/04/07 07:22:32;;;;;;;3.10;1.20;;;8.70;93.80;;;;;;4159897;28;20192;-72
2022/04/07 07:24:33;;;;;;;1.07;0.50;;;8.70;94.00;;;;;;4160572;28;20188;-71
2022/04/07 07:26:34;;;;;;;2.40;0.80;;;8.70;93.70;;;;;;4161175;28;20231;-70
2022/04/07 07:28:34;;;;;;;1.27;0.90;;;8.80;94.10;;;;;;4135859;28;20768;-71
2022/04/07 07:30:35;;;;;;;1.23;0.73;;;8.80;95.10;;;;;;4130343;28;20189;-72
2022/04/07 07:32:41;;;;;;;0.93;0.50;;;8.60;95.00;;;;;;4163451;28;20201;-71
2022/04/07 07:34:42;;;;;;;5.00;1.27;;;8.60;95.80;;;;;;4160196;28;20733;-72
2022/04/07 07:36:43;;;;;;;0.83;0.47;;;8.60;95.80;;;;;;4146796;28;20243;-71
2022/04/07 07:38:43;;;;;;;2.93;0.70;;;8.60;96.20;;;;;;4148118;28;20292;-71
2022/04/07 07:40:44;;;;;;;1.90;0.70;;;8.50;95.60;;;;;;4148006;28;20195;-71
2022/04/07 07:42:45;;;;;;;0.60;0.50;;;8.50;96.20;;;;;;4147465;28;20188;-70
2022/04/07 07:44:46;;;;;;;0.93;0.60;;;8.50;96.90;;;;;;4148036;28;20313;-72
2022/04/07 07:46:46;;;;;;;1.10;0.70;;;8.50;96.00;;;;;;4146950;28;20283;-71
2022/04/07 07:48:47;;;;;;;0.40;0.40;;;8.50;95.80;;;;;;4148135;28;20602;-72
2022/04/07 07:50:48;;;;;;;0.70;0.63;;;8.80;95.20;;;;;;4148090;28;20616;-71
2022/04/07 07:52:49;;;;;;;0.50;0.30;;;8.80;94.20;;;;;;4147341;28;20665;-72
2022/04/07 07:54:49;;;;;;;1.10;0.53;;;8.80;94.30;;;;;;4146552;28;20676;-72
2022/04/07 07:56:50;;;;;;;0.77;0.30;;;8.90;94.20;;;;;;4146293;28;20208;-71
2022/04/07 07:58:50;;;;;;;0.40;0.30;;;8.80;93.70;;;;;;4146455;28;20267;-71
2022/04/07 08:00:52;;;;;;;0.30;0.30;;;8.80;94.50;;;;;;4146368;28;20553;-71
2022/04/07 08:02:52;;;;;;;0.60;0.50;;;8.70;94.90;;;;;;4146098;28;20309;-71
2022/04/07 08:04:53;;;;;;;5.13;0.60;;;8.70;94.70;;;;;;4147781;28;20197;-71
2022/04/07 08:06:54;;;;;;;1.00;0.57;;;8.70;95.70;;;;;;4147925;28;20194;-71
2022/04/07 08:08:54;;;;;;;0.40;0.40;;;8.70;96.70;;;;;;4146423;28;20189;-71
2022/04/07 08:10:55;;;;;;;0.40;0.40;;;8.50;96.60;;;;;;4147761;28;20543;-70
2022/04/07 08:12:56;;;;;;;0.67;0.50;;;8.40;96.30;;;;;;4147014;28;20630;-70
2022/04/07 08:14:57;;;;;;;1.20;0.57;;;8.10;98.70;;;;;;4146471;28;20183;-72
2022/04/07 08:16:57;;;;;;;0.90;0.50;;;8.00;99.90;;;;;;4146466;28;20987;-72
2022/04/07 08:18:58;;;;;;;1.13;0.50;;;8.00;99.90;;;;;;4146042;28;20214;-72
2022/04/07 08:20:59;;;;;;;1.03;0.50;;;8.10;99.90;;;;;;4147585;28;20187;-72
2022/04/07 08:23:00;;;;;;;2.27;0.70;;;8.20;99.90;;;;;;4146963;28;20802;-72
2022/04/07 08:25:01;;;;;;;1.93;1.20;;;8.40;99.90;;;;;;4146065;28;20367;-72
2022/04/07 08:27:03;;;;;;;0.93;0.60;;;8.50;99.90;;;;;;4146015;28;20206;-72
2022/04/07 08:29:04;;;;;;;1.00;0.63;;;8.50;99.70;;;;;;4145893;28;20856;-72
2022/04/07 08:31:05;;;;;;;0.20;0.20;;;8.60;98.70;;;;;;4160831;28;20541;-72
2022/04/07 08:33:06;;;;;;;0.40;0.40;;;8.50;98.30;;;;;;4162190;28;20261;-72
2022/04/07 08:35:10;;;;;;;2.73;0.80;;;8.40;99.60;;;;;;4145840;28;20213;-73
2022/04/07 08:37:10;;;;;;;1.57;0.83;;;8.20;99.30;;;;;;4163815;28;20209;-73
2022/04/07 08:39:11;;;;;;;1.30;0.60;;;8.10;99.90;;;;;;4163545;28;20209;-73
2022/04/07 08:41:12;;;;;;;1.57;0.50;;;7.90;99.90;;;;;;4161561;28;20181;-73
2022/04/07 08:43:13;;;;;;;0.50;0.50;;;7.80;99.90;;;;;;4163115;28;20177;-73
2022/04/07 08:45:14;;;;;;;0.93;0.40;;;7.70;99.90;;;;;;4163406;28;20430;-73
2022/04/07 08:47:20;;;;;;;1.27;0.53;;;7.60;99.90;;;;;;4162154;28;20201;-72
2022/04/07 08:49:23;;;;;;;1.17;0.90;;;7.60;99.90;;;;;;4145782;28;20182;-73
2022/04/07 08:51:26;;;;;;;0.50;0.50;;;7.60;99.90;;;;;;4162781;28;20420;-73
2022/04/07 08:53:27;;;;;;;0.83;0.53;;;7.70;99.90;;;;;;4163473;28;20943;-73
2022/04/07 08:55:27;;;;;;;0.60;0.47;;;7.90;99.90;;;;;;4162009;28;20473;-74
2022/04/07 08:57:31;;;;;;;1.03;0.60;;;8.10;99.90;;;;;;4161924;28;20586;-73
2022/04/07 08:59:32;;;;;;;1.60;0.70;;;8.20;99.90;;;;;;4162133;28;20291;-72
2022/04/07 09:01:33;;;;;;;1.50;0.53;;;8.40;99.90;;;;;;4162929;28;20260;-72
2022/04/07 09:03:33;;;;;;;1.33;0.70;;;8.50;99.90;;;;;;4162137;28;20436;-72
2022/04/07 09:05:34;;;;;;;1.07;0.67;;;8.50;99.90;;;;;;4163179;28;20180;-72
2022/04/07 09:07:35;;;;;;;1.07;0.50;;;8.80;98.90;;;;;;4161810;28;20200;-73
2022/04/07 09:09:36;;;;;;;0.50;0.50;;;8.90;98.30;;;;;;4163102;28;20187;-74
2022/04/07 09:11:37;;;;;;;1.03;0.70;;;9.00;96.70;;;;;;4161076;28;20191;-72
2022/04/07 09:13:41;;;;;;;1.00;0.40;;;8.90;98.00;;;;;;4162973;28;20671;-72
2022/04/07 09:15:42;;;;;;;1.30;0.60;;;9.00;96.80;;;;;;4161886;28;20592;-73
2022/04/07 09:17:54;;;;;;;0.70;0.70;;;9.00;96.40;;;;;;4162994;28;20303;-72
2022/04/07 09:19:55;;;;;;;2.27;0.30;;;9.00;96.00;;;;;;4162945;28;20648;-72
2022/04/07 09:22:16;;;;;;;0.80;0.60;;;8.90;98.00;;;;;;4161121;28;20196;-72
2022/04/07 09:24:26;;;;;;;0.60;0.53;;;8.90;99.80;;;;;;4162527;28;20232;-72
2022/04/07 09:26:29;;;;;;;2.17;0.87;;;8.60;98.30;;;;;;4161572;28;20233;-73
2022/04/07 09:28:32;;;;;;;0.50;0.50;;;8.40;99.90;;;;;;4161788;28;20570;-73
2022/04/07 09:30:38;;;;;;;0.40;0.40;;;8.40;99.90;;;;;;4161595;28;20481;-74
2022/04/07 09:32:44;;;;;;;1.33;0.43;;;8.20;99.90;;;;;;4160774;28;20448;-73
2022/04/07 09:34:58;;;;;;;0.90;0.80;;;8.10;99.90;;;;;;4161340;28;20971;-73
2022/04/07 09:37:06;;;;;;;0.57;0.30;;;8.20;99.90;;;;;;4161490;28;20449;-73
2022/04/07 09:39:08;;;;;;;1.70;0.93;;;8.20;99.90;;;;;;4162513;28;20217;-74
2022/04/07 09:41:14;;;;;;;1.63;0.40;;;8.30;99.90;;;;;;4161944;28;20424;-73
2022/04/07 09:43:14;;;;;;;1.07;0.97;;;8.30;99.90;;;;;;4162667;28;20177;-73
2022/04/07 09:45:15;;;;;;;0.50;0.27;;;8.10;99.90;;;;;;4161461;28;20869;-73
2022/04/07 09:47:16;;;;;;;0.97;0.50;;;7.90;99.90;;;;;;4162721;28;20705;-74
2022/04/07 09:49:17;;;;;;;0.80;0.50;;;7.90;99.90;;;;;;4161294;28;20186;-73
2022/04/07 09:51:18;;;;;;;2.30;1.00;;;7.90;99.90;;;;;;4160714;28;20252;-73
2022/04/07 09:53:21;;;;;;;1.40;0.30;;;7.90;99.90;;;;;;4162410;28;20199;-74
2022/04/07 09:55:29;;;;;;;0.40;0.40;;;8.00;99.90;;;;;;4162053;28;20191;-73
2022/04/07 09:57:30;;;;;;;0.87;0.30;;;8.20;99.90;;;;;;4161101;28;20205;-75
2022/04/07 09:59:31;;;;;;;0.53;0.40;;;8.60;99.90;;;;;;4145239;28;20230;-74
2022/04/07 10:01:33;;;;;;;0.50;0.50;;;8.70;99.90;;;;;;4145893;28;20317;-73
2022/04/07 10:03:34;;;;;;;0.63;0.20;;;8.90;98.90;;;;;;4162003;28;20187;-73
2022/04/07 10:05:34;;;;;;;1.10;0.20;;;9.20;99.20;;;;;;4162390;28;20219;-73
2022/04/07 10:07:35;;;;;;;0.30;0.30;;;9.30;97.00;;;;;;4162130;28;20683;-73
2022/04/07 10:09:40;;;;;;;0.40;0.40;;;9.50;98.00;;;;;;4162253;28;20192;-73
2022/04/07 10:11:42;;;;;;;0.37;0.37;;;9.50;99.00;;;;;;4162614;28;20196;-72
2022/04/07 10:13:45;;;;;;;0.20;0.20;;;9.70;99.00;;;;;;4164281;28;20202;-73
2022/04/07 10:15:49;;;;;;;0.40;0.40;;;9.60;99.80;;;;;;4164441;28;20276;-73
2022/04/07 10:17:50;;;;;;;0.40;0.40;;;9.50;99.60;;;;;;4165657;28;20625;-73
2022/04/07 10:20:00;;;;;;;1.13;0.40;;;9.30;99.20;;;;;;4165851;28;20243;-73
2022/04/07 10:22:09;;;;;;;0.77;0.30;;;9.20;99.90;;;;;;4163886;28;20279;-73
2022/04/07 10:24:40;;;;;;;0.20;0.20;;;9.40;99.90;;;;;;4165908;28;20191;-72
2022/04/07 10:26:45;;;;;;;0.40;0.40;;;9.30;99.90;;;;;;4164379;28;20199;-73
2022/04/07 10:28:55;;;;;;;0.20;0.20;;;9.40;99.90;;;;;;4164591;28;20342;-73
2022/04/07 10:30:56;;;;;;;0.43;0.40;;;9.30;99.40;;;;;;4164422;28;20216;-73
2022/04/07 10:32:58;;;;;;;0.40;0.40;;;9.30;99.10;;;;;;4163731;28;20589;-72
2022/04/07 10:34:59;;;;;;;0.40;0.40;;;9.30;99.90;;;;;;4164378;28;20183;-72
2022/04/07 10:37:05;;;;;;;0.63;0.30;;;9.30;99.20;;;;;;4164541;28;20215;-72
2022/04/07 10:39:12;;;;;;;0.20;0.20;;;9.10;98.50;;;;;;4164234;28;20228;-73
2022/04/07 10:41:38;;;;;;;0.27;0.27;;;9.10;99.90;;;;;;4163569;28;20429;-73
2022/04/07 10:43:40;;;;;;;0.40;0.40;;;9.10;98.10;;;;;;4149532;28;20267;-72